Time;durP1;ratioP1;P1;durP2;ratioP2;P2;SDS_P1;SDS_P2;PMS_P1;PMS_P2;Temp;Humidity;BMP_temperature;BMP_pressure;BME280_temperature;BME280_humidity;BME280_pressure;Samples;Min_cycle;Max_cycle;Signal;HPM_P1;HPM_P2
2021/07/16 00:00:42;;;;;;;7.75;4.93;;;;;;;;;;5061959;28;20182;-86
2021/07/16 00:03:08;;;;;;;6.07;5.47;;;;;;;;;;5061082;28;20732;-85
2021/07/16 00:05:34;;;;;;;9.13;6.40;;;;;;;;;;5044890;28;20193;-86
2021/07/16 00:08:00;;;;;;;6.82;5.90;;;;;;;;;;5023237;28;20519;-85
2021/07/16 00:10:26;;;;;;;6.70;6.00;;;;;;;;;;5027944;28;20201;-86
2021/07/16 00:12:52;;;;;;;8.45;6.43;;;;;;;;;;5028595;28;20399;-83
2021/07/16 00:15:18;;;;;;;7.72;5.78;;;;;;;;;;5061905;28;20201;-85
2021/07/16 00:17:45;;;;;;;9.30;5.82;;;;;;;;;;5045479;28;20192;-85
2021/07/16 00:20:12;;;;;;;8.30;6.50;;;;;;;;;;5060314;28;20613;-85
2021/07/16 00:22:38;;;;;;;8.60;5.70;;;;;;;;;;5023218;28;20251;-85
2021/07/16 00:25:05;;;;;;;8.70;5.70;;;;;;;;;;5045305;28;20185;-85
2021/07/16 00:27:31;;;;;;;6.47;5.82;;;;;;;;;;5045660;28;20182;-82
2021/07/16 00:29:57;;;;;;;6.70;5.77;;;;;;;;;;5061345;28;20185;-84
2021/07/16 00:32:23;;;;;;;6.60;5.97;;;;;;;;;;5061219;28;20443;-86
2021/07/16 00:34:49;;;;;;;7.75;5.88;;;;;;;;;;5059715;28;20233;-84
2021/07/16 00:37:15;;;;;;;6.93;6.23;;;;;;;;;;5060598;28;20225;-85
2021/07/16 00:39:41;;;;;;;6.80;6.10;;;;;;;;;;5060478;28;20428;-85
2021/07/16 00:42:07;;;;;;;8.90;6.70;;;;;;;;;;5062274;28;20421;-87
2021/07/16 00:44:34;;;;;;;7.50;6.30;;;;;;;;;;5060124;28;20444;-86
2021/07/16 00:47:00;;;;;;;7.57;6.50;;;;;;;;;;5045307;28;20198;-85
2021/07/16 00:49:28;;;;;;;7.65;5.97;;;;;;;;;;5026558;28;20241;-84
2021/07/16 00:51:54;;;;;;;10.13;5.78;;;;;;;;;;5060365;28;20599;-84
2021/07/16 00:54:20;;;;;;;7.03;5.85;;;;;;;;;;5057410;28;20242;-85
2021/07/16 00:56:46;;;;;;;7.97;6.30;;;;;;;;;;5060283;28;20197;-85
2021/07/16 00:59:14;;;;;;;7.70;5.93;;;;;;;;;;5044712;28;20515;-85
2021/07/16 01:01:42;;;;;;;7.47;5.70;;;;;;;;;;5044562;28;20614;-85
2021/07/16 01:04:08;;;;;;;7.88;6.15;;;;;;;;;;5026948;28;20182;-86
2021/07/16 01:06:34;;;;;;;10.43;6.00;;;;;;;;;;5060201;28;20180;-85
2021/07/16 01:09:00;;;;;;;8.63;5.80;;;;;;;;;;5059897;28;20241;-86
2021/07/16 01:11:26;;;;;;;6.77;6.03;;;;;;;;;;5044480;28;20489;-85
2021/07/16 01:13:52;;;;;;;7.00;5.35;;;;;;;;;;5059834;28;20491;-85
2021/07/16 01:16:18;;;;;;;6.57;5.88;;;;;;;;;;5059545;28;20205;-86
2021/07/16 01:18:44;;;;;;;7.40;5.40;;;;;;;;;;5059291;28;20214;-86
2021/07/16 01:21:11;;;;;;;8.00;5.95;;;;;;;;;;5061035;28;20174;-86
2021/07/16 01:23:37;;;;;;;6.45;5.80;;;;;;;;;;5044056;28;20182;-85
2021/07/16 01:26:05;;;;;;;6.65;5.70;;;;;;;;;;5021210;28;20181;-86
2021/07/16 01:28:31;;;;;;;7.00;4.88;;;;;;;;;;5016141;28;20217;-86
2021/07/16 01:30:57;;;;;;;9.25;5.70;;;;;;;;;;5059188;28;20199;-85
2021/07/16 01:33:23;;;;;;;6.15;5.20;;;;;;;;;;5060757;28;20186;-83
2021/07/16 01:35:49;;;;;;;10.15;6.18;;;;;;;;;;5060414;28;20202;-86
2021/07/16 01:38:15;;;;;;;5.37;4.80;;;;;;;;;;5016147;28;20246;-85
2021/07/16 01:40:42;;;;;;;6.00;5.50;;;;;;;;;;5019837;28;20749;-84
2021/07/16 01:43:09;;;;;;;10.20;6.10;;;;;;;;;;5041484;28;20186;-85
2021/07/16 01:45:38;;;;;;;7.75;5.53;;;;;;;;;;5040807;28;20762;-85
2021/07/16 01:48:09;;;;;;;6.55;5.35;;;;;;;;;;5027249;28;20197;-86
2021/07/16 01:50:35;;;;;;;6.50;5.90;;;;;;;;;;5043471;28;20187;-85
2021/07/16 01:53:02;;;;;;;5.85;5.35;;;;;;;;;;5044104;28;20574;-86
2021/07/16 01:55:29;;;;;;;6.90;4.90;;;;;;;;;;5043465;28;20213;-85
2021/07/16 01:57:57;;;;;;;6.57;5.93;;;;;;;;;;5039723;28;20186;-85
2021/07/16 02:00:26;;;;;;;5.50;5.00;;;;;;;;;;5044587;28;20175;-86
2021/07/16 02:02:56;;;;;;;8.02;4.85;;;;;;;;;;5028756;28;20182;-85
2021/07/16 02:05:22;;;;;;;5.70;5.10;;;;;;;;;;5028404;28;20202;-85
2021/07/16 02:07:50;;;;;;;7.78;4.90;;;;;;;;;;5043816;28;20221;-86
2021/07/16 02:10:16;;;;;;;7.38;5.25;;;;;;;;;;5038783;28;20183;-84
2021/07/16 02:12:42;;;;;;;6.90;5.93;;;;;;;;;;5055096;28;20186;-85
2021/07/16 02:15:19;;;;;;;8.37;5.30;;;;;;;;;;5044381;28;20216;-86
2021/07/16 02:17:46;;;;;;;6.35;5.05;;;;;;;;;;5042884;28;20607;-85
2021/07/16 02:20:18;;;;;;;6.22;5.07;;;;;;;;;;5028241;28;20253;-83
2021/07/16 02:22:44;;;;;;;7.47;5.35;;;;;;;;;;5043116;28;20198;-85
2021/07/16 02:25:11;;;;;;;7.80;5.17;;;;;;;;;;5025106;28;20213;-86
2021/07/16 02:27:37;;;;;;;5.68;4.97;;;;;;;;;;5057079;28;20420;-86
2021/07/16 02:30:05;;;;;;;5.03;4.50;;;;;;;;;;5043696;28;20331;-85
2021/07/16 02:32:31;;;;;;;8.77;5.03;;;;;;;;;;5028100;28;20205;-85
2021/07/16 02:34:57;;;;;;;6.50;5.20;;;;;;;;;;5027083;28;20269;-86
2021/07/16 02:37:23;;;;;;;9.93;5.10;;;;;;;;;;5033428;28;20285;-85
2021/07/16 02:39:49;;;;;;;5.50;4.83;;;;;;;;;;5042878;28;20452;-86
2021/07/16 02:42:15;;;;;;;6.33;4.80;;;;;;;;;;5044369;28;20439;-87
2021/07/16 02:44:41;;;;;;;7.20;4.80;;;;;;;;;;5042709;28;20448;-85
2021/07/16 02:47:07;;;;;;;6.23;4.97;;;;;;;;;;5021083;28;20425;-86
2021/07/16 02:49:33;;;;;;;7.07;5.90;;;;;;;;;;5020688;28;20507;-86
2021/07/16 02:51:59;;;;;;;5.93;5.37;;;;;;;;;;5021578;28;20480;-86
2021/07/16 02:54:25;;;;;;;5.85;5.28;;;;;;;;;;5057642;28;20960;-85
2021/07/16 02:56:51;;;;;;;6.57;4.80;;;;;;;;;;5043711;28;20561;-86
2021/07/16 02:59:17;;;;;;;9.90;4.80;;;;;;;;;;5024524;28;20181;-86
2021/07/16 03:01:53;;;;;;;6.10;4.60;;;;;;;;;;5021530;28;20437;-83
2021/07/16 03:04:19;;;;;;;7.93;4.93;;;;;;;;;;5057922;28;20432;-85
2021/07/16 03:06:45;;;;;;;6.70;5.30;;;;;;;;;;5042856;28;20195;-86
2021/07/16 03:09:11;;;;;;;5.60;3.80;;;;;;;;;;5059799;28;20506;-86
2021/07/16 03:11:37;;;;;;;4.95;4.45;;;;;;;;;;5042694;28;20466;-86
2021/07/16 03:14:04;;;;;;;5.63;4.30;;;;;;;;;;5041569;28;20205;-85
2021/07/16 03:16:30;;;;;;;5.90;4.35;;;;;;;;;;5024966;28;20613;-85
2021/07/16 03:18:59;;;;;;;5.50;4.70;;;;;;;;;;5058936;28;20182;-85
2021/07/16 03:21:26;;;;;;;4.70;4.20;;;;;;;;;;5058436;28;20427;-85
2021/07/16 03:23:52;;;;;;;5.20;4.57;;;;;;;;;;5058247;28;20201;-84
2021/07/16 03:26:18;;;;;;;8.38;5.32;;;;;;;;;;5042798;28;20241;-86
2021/07/16 03:28:44;;;;;;;10.37;4.57;;;;;;;;;;5024144;28;20193;-85
2021/07/16 03:31:10;;;;;;;6.90;4.30;;;;;;;;;;5042628;28;20436;-85
2021/07/16 03:33:36;;;;;;;6.70;4.35;;;;;;;;;;5058694;28;20447;-86
2021/07/16 03:36:02;;;;;;;5.38;4.20;;;;;;;;;;5058873;28;20228;-85
2021/07/16 03:38:28;;;;;;;6.47;4.10;;;;;;;;;;5046313;28;20226;-85
2021/07/16 03:40:55;;;;;;;4.72;3.65;;;;;;;;;;5045620;28;20182;-82
2021/07/16 03:43:21;;;;;;;4.35;3.50;;;;;;;;;;5027182;28;20174;-86
2021/07/16 03:45:47;;;;;;;5.72;4.10;;;;;;;;;;5012290;28;20190;-85
2021/07/16 03:48:13;;;;;;;5.40;4.43;;;;;;;;;;5062727;28;20180;-86
2021/07/16 03:50:39;;;;;;;6.10;4.00;;;;;;;;;;5046033;28;20240;-84
2021/07/16 03:53:06;;;;;;;4.47;4.07;;;;;;;;;;5022420;28;20191;-85
2021/07/16 03:55:32;;;;;;;7.70;4.65;;;;;;;;;;5017361;28;20217;-85
2021/07/16 03:57:58;;;;;;;6.82;4.80;;;;;;;;;;5045326;28;20181;-85
2021/07/16 04:00:28;;;;;;;6.30;4.32;;;;;;;;;;5012548;28;20176;-83
2021/07/16 04:02:55;;;;;;;6.53;4.32;;;;;;;;;;5061619;28;20166;-86
2021/07/16 04:05:21;;;;;;;7.45;4.68;;;;;;;;;;5020126;28;20186;-83
2021/07/16 04:07:49;;;;;;;7.72;5.13;;;;;;;;;;5019104;28;20196;-85
2021/07/16 04:10:20;;;;;;;6.68;5.95;;;;;;;;;;5061307;28;20716;-84
2021/07/16 04:12:50;;;;;;;5.70;4.93;;;;;;;;;;5060801;28;20189;-86
2021/07/16 04:15:16;;;;;;;5.15;4.45;;;;;;;;;;5062013;28;20703;-87
2021/07/16 04:17:42;;;;;;;6.80;5.47;;;;;;;;;;5045563;28;20190;-87
2021/07/16 04:20:09;;;;;;;12.13;5.40;;;;;;;;;;5023393;28;20197;-85
2021/07/16 04:22:35;;;;;;;7.65;5.57;;;;;;;;;;5019478;28;20625;-84
2021/07/16 04:25:01;;;;;;;8.57;4.97;;;;;;;;;;5024279;28;20262;-84
2021/07/16 04:27:27;;;;;;;7.10;4.65;;;;;;;;;;5059878;28;20426;-84
2021/07/16 04:29:53;;;;;;;5.47;4.97;;;;;;;;;;5061488;28;20170;-86
2021/07/16 04:32:19;;;;;;;4.68;4.28;;;;;;;;;;5015567;28;20748;-87
2021/07/16 04:34:45;;;;;;;7.68;5.78;;;;;;;;;;5036602;28;20272;-87
2021/07/16 04:37:12;;;;;;;5.70;4.65;;;;;;;;;;5060535;28;20217;-86
2021/07/16 04:39:38;;;;;;;5.25;4.07;;;;;;;;;;5045156;28;20174;-85
2021/07/16 04:42:04;;;;;;;6.80;4.18;;;;;;;;;;5058630;28;20174;-85
2021/07/16 04:44:31;;;;;;;4.85;4.40;;;;;;;;;;5022871;28;20257;-86
2021/07/16 04:46:57;;;;;;;4.65;4.15;;;;;;;;;;5027168;28;20185;-86
2021/07/16 04:49:23;;;;;;;6.50;4.80;;;;;;;;;;5027157;28;20216;-85
2021/07/16 04:51:49;;;;;;;5.07;4.10;;;;;;;;;;5010933;28;20216;-85
2021/07/16 04:54:16;;;;;;;6.30;4.90;;;;;;;;;;5060969;28;20181;-84
2021/07/16 04:56:44;;;;;;;6.38;5.03;;;;;;;;;;5016150;28;20713;-85
2021/07/16 04:59:11;;;;;;;7.65;5.50;;;;;;;;;;5039312;28;20188;-84
2021/07/16 05:01:37;;;;;;;7.53;4.50;;;;;;;;;;5044914;28;20189;-85
2021/07/16 05:04:03;;;;;;;6.13;4.53;;;;;;;;;;5044568;28;20264;-85
2021/07/16 05:06:29;;;;;;;5.55;4.00;;;;;;;;;;5060297;28;20209;-84
2021/07/16 05:08:55;;;;;;;5.38;4.53;;;;;;;;;;5044682;28;20203;-84
2021/07/16 05:11:21;;;;;;;5.32;4.57;;;;;;;;;;5017975;28;20186;-85
2021/07/16 05:13:48;;;;;;;5.90;4.30;;;;;;;;;;5014248;28;20255;-82
2021/07/16 05:16:14;;;;;;;6.93;4.60;;;;;;;;;;5044405;28;20224;-84
2021/07/16 05:18:41;;;;;;;6.93;4.97;;;;;;;;;;5059768;28;20184;-85
2021/07/16 05:21:07;;;;;;;8.63;4.53;;;;;;;;;;5060271;28;20170;-85
2021/07/16 05:23:34;;;;;;;5.03;4.07;;;;;;;;;;5059722;28;20193;-84
2021/07/16 05:26:00;;;;;;;4.55;3.95;;;;;;;;;;5022034;28;20324;-84
2021/07/16 05:28:26;;;;;;;4.63;4.22;;;;;;;;;;5023235;28;20201;-85
2021/07/16 05:30:52;;;;;;;7.30;4.10;;;;;;;;;;5045410;28;20190;-85
2021/07/16 05:33:18;;;;;;;4.85;4.10;;;;;;;;;;5047123;28;20420;-84
2021/07/16 05:35:45;;;;;;;4.10;3.70;;;;;;;;;;5045058;28;20213;-85
2021/07/16 05:38:11;;;;;;;5.28;4.38;;;;;;;;;;5043473;28;20229;-87
2021/07/16 05:40:38;;;;;;;5.25;3.90;;;;;;;;;;5025655;28;20656;-85
2021/07/16 05:43:10;;;;;;;6.13;4.53;;;;;;;;;;5059863;28;20208;-86
2021/07/16 05:45:37;;;;;;;6.97;4.43;;;;;;;;;;5051449;28;20192;-85
2021/07/16 05:48:06;;;;;;;7.00;4.43;;;;;;;;;;5060261;28;20177;-86
2021/07/16 05:50:32;;;;;;;5.88;4.45;;;;;;;;;;5058941;28;20262;-83
2021/07/16 05:52:58;;;;;;;4.50;4.10;;;;;;;;;;5020905;28;20185;-85
2021/07/16 05:55:25;;;;;;;5.10;3.60;;;;;;;;;;5021276;28;20203;-85
2021/07/16 05:57:51;;;;;;;7.88;3.97;;;;;;;;;;5025594;28;20189;-86
2021/07/16 06:00:17;;;;;;;5.53;3.93;;;;;;;;;;5059140;28;20629;-86
2021/07/16 06:02:43;;;;;;;4.38;3.25;;;;;;;;;;5020384;28;20535;-84
2021/07/16 06:05:10;;;;;;;5.47;3.38;;;;;;;;;;5021236;28;20219;-83
2021/07/16 06:07:36;;;;;;;4.05;3.53;;;;;;;;;;5024101;28;20291;-84
2021/07/16 06:10:02;;;;;;;8.57;3.40;;;;;;;;;;5043638;28;20186;-83
2021/07/16 06:12:28;;;;;;;5.82;3.20;;;;;;;;;;5058217;28;20294;-84
2021/07/16 06:14:55;;;;;;;3.93;3.53;;;;;;;;;;5059439;28;20178;-83
2021/07/16 06:17:22;;;;;;;6.40;3.67;;;;;;;;;;5018009;28;20434;-85
2021/07/16 06:19:48;;;;;;;5.32;4.80;;;;;;;;;;5013621;28;20261;-83
2021/07/16 06:22:14;;;;;;;3.03;2.73;;;;;;;;;;5058073;28;20177;-83
2021/07/16 06:24:40;;;;;;;4.00;3.47;;;;;;;;;;5057884;28;20858;-84
2021/07/16 06:27:06;;;;;;;4.82;3.03;;;;;;;;;;5044147;28;20595;-84
2021/07/16 06:29:32;;;;;;;4.13;2.45;;;;;;;;;;5043102;28;20194;-85
2021/07/16 06:31:58;;;;;;;4.60;3.50;;;;;;;;;;5042421;28;20187;-83
2021/07/16 06:34:24;;;;;;;4.13;3.40;;;;;;;;;;5043012;28;20183;-85
2021/07/16 06:36:50;;;;;;;4.25;3.63;;;;;;;;;;5008329;28;20217;-85
2021/07/16 06:39:16;;;;;;;5.05;3.80;;;;;;;;;;5043838;28;20220;-83
2021/07/16 06:41:42;;;;;;;5.40;3.28;;;;;;;;;;5014201;28;20186;-83
2021/07/16 06:44:10;;;;;;;3.33;3.00;;;;;;;;;;5009060;28;20213;-84
2021/07/16 06:46:36;;;;;;;6.15;3.10;;;;;;;;;;5033039;28;20201;-84
2021/07/16 06:49:02;;;;;;;3.67;2.60;;;;;;;;;;5043101;28;20178;-84
2021/07/16 06:51:30;;;;;;;2.65;2.45;;;;;;;;;;5041496;28;20420;-84
2021/07/16 06:53:56;;;;;;;4.10;3.78;;;;;;;;;;5057827;28;20227;-84
2021/07/16 06:56:22;;;;;;;2.90;2.70;;;;;;;;;;5042886;28;20224;-85
2021/07/16 06:58:48;;;;;;;7.03;2.60;;;;;;;;;;5025038;28;20240;-83
2021/07/16 07:01:14;;;;;;;3.55;3.03;;;;;;;;;;5025081;28;20468;-84
2021/07/16 07:03:40;;;;;;;5.13;3.47;;;;;;;;;;5058144;28;20181;-83
2021/07/16 07:06:07;;;;;;;3.13;2.90;;;;;;;;;;5042916;28;20187;-84
2021/07/16 07:08:33;;;;;;;8.13;2.78;;;;;;;;;;5042300;28;20450;-82
2021/07/16 07:10:58;;;;;;;3.03;2.30;;;;;;;;;;5020130;28;20213;-83
2021/07/16 07:13:24;;;;;;;5.47;2.23;;;;;;;;;;5024003;28;20525;-84
2021/07/16 07:15:51;;;;;;;2.92;2.40;;;;;;;;;;5062265;28;21020;-83
2021/07/16 07:18:17;;;;;;;2.40;2.20;;;;;;;;;;5047638;28;20170;-83
2021/07/16 07:20:43;;;;;;;2.33;2.10;;;;;;;;;;5017483;28;20279;-84
2021/07/16 07:23:09;;;;;;;3.00;2.30;;;;;;;;;;5017708;28;20498;-83
2021/07/16 07:25:35;;;;;;;2.60;2.40;;;;;;;;;;5045534;28;20190;-84
2021/07/16 07:28:01;;;;;;;3.63;2.20;;;;;;;;;;5046756;28;20638;-83
2021/07/16 07:30:27;;;;;;;2.20;2.00;;;;;;;;;;5046740;28;20904;-84
2021/07/16 07:32:53;;;;;;;2.20;2.08;;;;;;;;;;5046821;28;20186;-84
2021/07/16 07:35:19;;;;;;;3.00;2.00;;;;;;;;;;5046167;28;20209;-82
2021/07/16 07:37:45;;;;;;;2.35;2.03;;;;;;;;;;5045782;28;20252;-83
2021/07/16 07:40:13;;;;;;;2.38;2.10;;;;;;;;;;5027776;28;20189;-83
2021/07/16 07:42:39;;;;;;;2.40;1.90;;;;;;;;;;5061330;28;20247;-83
2021/07/16 07:45:06;;;;;;;4.50;2.28;;;;;;;;;;5044957;28;20657;-84
2021/07/16 07:47:32;;;;;;;4.60;2.08;;;;;;;;;;5023419;28;20185;-85
2021/07/16 07:49:59;;;;;;;2.20;2.00;;;;;;;;;;5045648;28;20452;-83
2021/07/16 07:52:25;;;;;;;3.45;2.00;;;;;;;;;;5023601;28;20186;-85
2021/07/16 07:54:51;;;;;;;2.08;1.65;;;;;;;;;;5045308;28;20627;-84
2021/07/16 07:57:17;;;;;;;3.50;1.88;;;;;;;;;;5062864;28;20705;-84
2021/07/16 07:59:43;;;;;;;3.63;2.33;;;;;;;;;;5013326;28;20232;-85
2021/07/16 08:02:10;;;;;;;2.03;1.70;;;;;;;;;;5017723;28;20691;-84
2021/07/16 08:04:37;;;;;;;1.80;1.70;;;;;;;;;;5045241;28;20186;-85
2021/07/16 08:07:03;;;;;;;6.25;2.42;;;;;;;;;;5027683;28;20178;-83
2021/07/16 08:09:30;;;;;;;2.78;2.33;;;;;;;;;;5046425;28;20350;-84
2021/07/16 08:11:56;;;;;;;3.85;2.05;;;;;;;;;;5061623;28;20177;-86
2021/07/16 08:14:22;;;;;;;2.15;1.88;;;;;;;;;;5024487;28;20178;-85
2021/07/16 08:16:48;;;;;;;3.78;2.55;;;;;;;;;;5033697;28;20217;-85
2021/07/16 08:19:17;;;;;;;4.85;2.80;;;;;;;;;;5049238;28;20216;-86
2021/07/16 08:21:44;;;;;;;2.20;2.00;;;;;;;;;;5060866;28;20175;-84
2021/07/16 08:24:10;;;;;;;2.47;2.25;;;;;;;;;;5060327;28;20185;-86
2021/07/16 08:26:36;;;;;;;4.97;2.35;;;;;;;;;;5018568;28;20198;-83
2021/07/16 08:29:02;;;;;;;3.17;2.10;;;;;;;;;;5016106;28;20194;-85
2021/07/16 08:31:28;;;;;;;2.17;1.98;;;;;;;;;;5011677;28;20470;-83
2021/07/16 08:33:54;;;;;;;2.70;2.47;;;;;;;;;;5026525;28;20563;-83
2021/07/16 08:36:20;;;;;;;2.27;2.07;;;;;;;;;;5041567;28;20490;-84
2021/07/16 08:38:46;;;;;;;3.20;2.45;;;;;;;;;;5059932;28;20452;-84
2021/07/16 08:41:12;;;;;;;6.40;3.00;;;;;;;;;;5044809;28;20268;-85
2021/07/16 08:43:41;;;;;;;3.05;2.38;;;;;;;;;;5044799;28;20464;-83
2021/07/16 08:46:08;;;;;;;4.03;2.90;;;;;;;;;;5044240;28;20269;-83
2021/07/16 08:48:35;;;;;;;3.00;2.80;;;;;;;;;;5044405;28;20193;-84
2021/07/16 08:51:01;;;;;;;4.53;3.10;;;;;;;;;;5061718;28;20184;-82
2021/07/16 08:53:28;;;;;;;3.75;2.72;;;;;;;;;;5018197;28;20182;-83
2021/07/16 08:55:54;;;;;;;4.65;2.78;;;;;;;;;;5038389;28;20202;-84
2021/07/16 08:58:20;;;;;;;3.20;2.90;;;;;;;;;;5029834;28;20191;-85
2021/07/16 09:00:46;;;;;;;5.28;2.72;;;;;;;;;;5029725;28;20201;-85
2021/07/16 09:03:12;;;;;;;3.57;2.93;;;;;;;;;;5060534;28;20169;-85
2021/07/16 09:05:42;;;;;;;3.15;2.55;;;;;;;;;;5016624;28;20528;-85
2021/07/16 09:08:12;;;;;;;6.13;3.38;;;;;;;;;;5038898;28;20187;-82
2021/07/16 09:10:43;;;;;;;4.38;2.97;;;;;;;;;;5045243;28;20173;-85
2021/07/16 09:13:10;;;;;;;4.78;3.45;;;;;;;;;;5026074;28;20208;-86
2021/07/16 09:15:36;;;;;;;3.13;2.83;;;;;;;;;;5059290;28;20194;-84
2021/07/16 09:18:20;;;;;;;3.50;3.20;;;;;;;;;;5059990;28;20633;-85
2021/07/16 09:20:46;;;;;;;5.68;2.90;;;;;;;;;;5059138;28;20178;-86
2021/07/16 09:23:19;;;;;;;5.45;2.90;;;;;;;;;;5058634;28;20252;-84
2021/07/16 09:26:00;;;;;;;4.28;2.80;;;;;;;;;;5043926;28;20196;-83
2021/07/16 09:28:26;;;;;;;3.15;2.85;;;;;;;;;;5059431;28;20188;-84
2021/07/16 09:30:55;;;;;;;2.95;2.55;;;;;;;;;;5059028;28;20197;-83
2021/07/16 09:33:21;;;;;;;3.17;2.58;;;;;;;;;;5044942;28;20231;-84
2021/07/16 09:35:50;;;;;;;3.95;3.55;;;;;;;;;;5058677;28;20205;-83
2021/07/16 09:38:17;;;;;;;3.92;3.20;;;;;;;;;;5018748;28;20210;-84
2021/07/16 09:40:53;;;;;;;5.85;3.72;;;;;;;;;;5012556;28;20594;-84
2021/07/16 09:43:19;;;;;;;3.15;2.85;;;;;;;;;;5025552;28;20186;-84
2021/07/16 09:46:01;;;;;;;5.93;3.75;;;;;;;;;;5043720;28;20193;-83
2021/07/16 09:48:29;;;;;;;4.95;3.58;;;;;;;;;;5056016;28;20268;-83
2021/07/16 09:51:11;;;;;;;3.25;2.95;;;;;;;;;;5044185;28;20527;-85
2021/07/16 09:53:41;;;;;;;3.58;2.88;;;;;;;;;;5043184;28;20331;-84
2021/07/16 09:56:15;;;;;;;5.18;3.28;;;;;;;;;;5020713;28;20208;-85
2021/07/16 09:58:41;;;;;;;6.50;3.28;;;;;;;;;;5049266;28;20192;-84
2021/07/16 10:01:07;;;;;;;5.18;3.60;;;;;;;;;;5058156;28;20188;-84
2021/07/16 10:03:33;;;;;;;3.70;3.15;;;;;;;;;;5058899;28;20175;-84
2021/07/16 10:06:01;;;;;;;6.78;3.50;;;;;;;;;;5044243;28;20186;-83
2021/07/16 10:08:31;;;;;;;4.85;3.30;;;;;;;;;;5043384;28;20186;-83
2021/07/16 10:10:58;;;;;;;4.20;3.10;;;;;;;;;;5020798;28;20236;-84
2021/07/16 10:13:24;;;;;;;3.28;2.97;;;;;;;;;;5024921;28;20209;-84
2021/07/16 10:15:50;;;;;;;3.97;3.58;;;;;;;;;;5042108;28;20261;-83
2021/07/16 10:18:16;;;;;;;3.75;3.30;;;;;;;;;;5059558;28;20213;-83
2021/07/16 10:20:42;;;;;;;3.90;3.40;;;;;;;;;;5043015;28;20185;-84
2021/07/16 10:23:08;;;;;;;5.32;4.25;;;;;;;;;;5057882;28;20174;-83
2021/07/16 10:25:35;;;;;;;3.13;2.92;;;;;;;;;;5025754;28;20185;-84
2021/07/16 10:28:01;;;;;;;5.65;3.78;;;;;;;;;;5058414;28;20249;-84
2021/07/16 10:30:31;;;;;;;4.78;3.42;;;;;;;;;;5043437;28;20232;-82
2021/07/16 10:32:59;;;;;;;3.85;3.53;;;;;;;;;;5059286;28;20235;-85
2021/07/16 10:35:27;;;;;;;9.70;3.67;;;;;;;;;;5042657;28;20197;-84
2021/07/16 10:38:00;;;;;;;4.32;3.45;;;;;;;;;;5057961;28;20219;-82
2021/07/16 10:40:46;;;;;;;4.88;3.20;;;;;;;;;;5043112;28;20187;-83
2021/07/16 10:43:24;;;;;;;6.55;4.13;;;;;;;;;;5028969;28;20722;-84
2021/07/16 10:45:50;;;;;;;5.95;4.15;;;;;;;;;;5059068;28;20270;-85
2021/07/16 10:48:20;;;;;;;7.60;4.80;;;;;;;;;;5050420;28;20170;-83
2021/07/16 10:50:55;;;;;;;6.32;4.43;;;;;;;;;;5049187;28;20186;-84
2021/07/16 10:53:30;;;;;;;8.10;4.82;;;;;;;;;;5048471;28;20918;-83
2021/07/16 10:55:56;;;;;;;6.15;4.85;;;;;;;;;;5027208;28;20217;-82
2021/07/16 10:58:23;;;;;;;8.00;4.90;;;;;;;;;;5019031;28;20174;-83
2021/07/16 11:00:53;;;;;;;7.68;5.22;;;;;;;;;;5015574;28;20432;-85
2021/07/16 11:03:20;;;;;;;8.20;4.32;;;;;;;;;;5051337;28;20257;-84
2021/07/16 11:05:46;;;;;;;6.22;4.95;;;;;;;;;;5015909;28;20339;-85
2021/07/16 11:08:32;;;;;;;6.30;4.57;;;;;;;;;;5043589;28;20193;-83
2021/07/16 11:11:08;;;;;;;8.73;5.03;;;;;;;;;;5048720;28;20421;-85
2021/07/16 11:13:51;;;;;;;9.65;4.90;;;;;;;;;;5064003;28;20189;-84
2021/07/16 11:16:30;;;;;;;6.07;4.63;;;;;;;;;;5048930;28;20204;-84
2021/07/16 11:19:03;;;;;;;7.40;5.38;;;;;;;;;;5064356;28;20173;-82
2021/07/16 11:21:48;;;;;;;7.93;5.57;;;;;;;;;;5064590;28;20174;-83
2021/07/16 11:24:20;;;;;;;6.07;4.85;;;;;;;;;;5064844;28;20190;-83
2021/07/16 11:26:56;;;;;;;9.75;5.35;;;;;;;;;;5049091;28;20190;-84
2021/07/16 11:29:29;;;;;;;7.68;4.93;;;;;;;;;;5026692;28;20187;-84
2021/07/16 11:32:04;;;;;;;10.43;5.75;;;;;;;;;;5027330;28;20233;-83
2021/07/16 11:34:30;;;;;;;10.13;5.15;;;;;;;;;;5019803;28;20198;-83
2021/07/16 11:36:56;;;;;;;7.88;5.75;;;;;;;;;;5064144;28;20234;-85
2021/07/16 11:39:39;;;;;;;7.22;5.90;;;;;;;;;;5050482;28;20185;-82
2021/07/16 11:42:06;;;;;;;9.00;5.13;;;;;;;;;;5049493;28;20202;-83
2021/07/16 11:44:32;;;;;;;9.52;5.35;;;;;;;;;;5063791;28;20182;-83
2021/07/16 11:46:59;;;;;;;6.53;5.93;;;;;;;;;;5026536;28;20189;-82
2021/07/16 11:49:29;;;;;;;10.48;5.95;;;;;;;;;;5030614;28;20432;-81
2021/07/16 11:52:02;;;;;;;7.57;5.50;;;;;;;;;;5032431;28;20183;-82
2021/07/16 11:54:29;;;;;;;7.32;5.88;;;;;;;;;;5060343;28;20277;-83
2021/07/16 11:56:56;;;;;;;10.38;5.65;;;;;;;;;;5064266;28;20619;-82
2021/07/16 11:59:22;;;;;;;8.52;5.15;;;;;;;;;;5020666;28;20171;-83
2021/07/16 12:02:07;;;;;;;8.07;5.57;;;;;;;;;;5019567;28;20232;-84
2021/07/16 12:04:33;;;;;;;10.98;5.50;;;;;;;;;;5060863;28;20196;-82
2021/07/16 12:06:59;;;;;;;14.52;6.57;;;;;;;;;;5060825;28;20193;-82
2021/07/16 12:09:36;;;;;;;6.82;4.53;;;;;;;;;;5061114;28;20193;-82
2021/07/16 12:12:03;;;;;;;10.77;5.55;;;;;;;;;;5061490;28;20175;-83
2021/07/16 12:14:29;;;;;;;6.80;5.57;;;;;;;;;;5045128;28;20190;-82
2021/07/16 12:16:55;;;;;;;5.68;5.05;;;;;;;;;;5045029;28;20313;-82
2021/07/16 12:19:21;;;;;;;9.07;5.05;;;;;;;;;;5028201;28;20183;-84
2021/07/16 12:21:47;;;;;;;6.97;5.03;;;;;;;;;;5045206;28;20197;-83
2021/07/16 12:24:14;;;;;;;5.65;4.93;;;;;;;;;;5061009;28;20435;-84
2021/07/16 12:26:40;;;;;;;10.07;5.43;;;;;;;;;;5044435;28;20190;-83
2021/07/16 12:29:11;;;;;;;7.78;4.63;;;;;;;;;;5022932;28;20220;-83
2021/07/16 12:31:37;;;;;;;10.52;4.95;;;;;;;;;;5044801;28;20183;-83
2021/07/16 12:34:22;;;;;;;9.48;4.88;;;;;;;;;;5045986;28;20189;-82
2021/07/16 12:36:49;;;;;;;8.40;4.90;;;;;;;;;;5044911;28;20229;-83
2021/07/16 12:39:22;;;;;;;5.43;4.53;;;;;;;;;;5045294;28;20169;-84
2021/07/16 12:41:48;;;;;;;7.32;4.88;;;;;;;;;;5022755;28;20192;-84
2021/07/16 12:44:15;;;;;;;6.07;5.32;;;;;;;;;;5020288;28;20179;-83
2021/07/16 12:46:41;;;;;;;10.40;5.55;;;;;;;;;;5035259;28;20205;-84
2021/07/16 12:49:08;;;;;;;7.57;4.95;;;;;;;;;;5046337;28;20312;-83
2021/07/16 12:51:39;;;;;;;10.77;5.93;;;;;;;;;;5060708;28;20189;-82
2021/07/16 12:54:05;;;;;;;7.32;5.13;;;;;;;;;;5060434;28;20183;-82
2021/07/16 12:56:35;;;;;;;10.73;4.70;;;;;;;;;;5018699;28;20211;-82
2021/07/16 12:59:02;;;;;;;6.30;4.80;;;;;;;;;;5015507;28;20260;-82
2021/07/16 13:01:31;;;;;;;7.97;5.40;;;;;;;;;;5011139;28;20183;-83
2021/07/16 13:03:57;;;;;;;5.43;4.80;;;;;;;;;;5044451;28;20178;-83
2021/07/16 13:06:31;;;;;;;9.75;5.05;;;;;;;;;;5061294;28;20198;-82
2021/07/16 13:09:10;;;;;;;7.18;4.60;;;;;;;;;;5044546;28;20179;-82
2021/07/16 13:11:37;;;;;;;8.00;4.78;;;;;;;;;;5044409;28;20251;-83
2021/07/16 13:14:03;;;;;;;5.97;4.35;;;;;;;;;;5043990;28;20183;-82
2021/07/16 13:16:29;;;;;;;11.00;5.95;;;;;;;;;;5059370;28;20218;-83
2021/07/16 13:19:00;;;;;;;11.43;4.40;;;;;;;;;;5045230;28;20209;-85
2021/07/16 13:21:26;;;;;;;5.57;4.80;;;;;;;;;;5041245;28;20565;-83
2021/07/16 13:23:53;;;;;;;7.60;4.97;;;;;;;;;;5059279;28;20201;-81
2021/07/16 13:26:28;;;;;;;8.60;4.33;;;;;;;;;;5021135;28;20434;-82
2021/07/16 13:28:54;;;;;;;9.70;4.40;;;;;;;;;;5022257;28;20440;-83
2021/07/16 13:31:20;;;;;;;7.93;4.17;;;;;;;;;;5026320;28;20425;-83
2021/07/16 13:33:46;;;;;;;8.53;5.13;;;;;;;;;;5059309;28;20425;-83
2021/07/16 13:36:12;;;;;;;6.00;4.43;;;;;;;;;;5044441;28;20930;-83
2021/07/16 13:38:38;;;;;;;10.47;5.47;;;;;;;;;;5058604;28;20443;-82
2021/07/16 13:41:05;;;;;;;8.20;4.60;;;;;;;;;;5043553;28;20496;-83
2021/07/16 13:43:31;;;;;;;9.07;4.50;;;;;;;;;;5025913;28;20450;-82
2021/07/16 13:45:57;;;;;;;7.40;4.10;;;;;;;;;;5025991;28;20445;-83
2021/07/16 13:48:24;;;;;;;5.90;4.40;;;;;;;;;;5060145;28;20938;-82
2021/07/16 13:50:50;;;;;;;8.60;4.93;;;;;;;;;;5020923;28;20566;-83
2021/07/16 13:53:16;;;;;;;8.80;4.67;;;;;;;;;;5043279;28;20411;-82
2021/07/16 13:55:42;;;;;;;11.23;5.20;;;;;;;;;;5058479;28;20459;-83
2021/07/16 13:58:09;;;;;;;6.93;5.17;;;;;;;;;;5025803;28;20446;-83
2021/07/16 14:00:35;;;;;;;8.13;4.90;;;;;;;;;;5059063;28;20395;-82
2021/07/16 14:03:01;;;;;;;8.80;4.53;;;;;;;;;;5059551;28;20491;-82
2021/07/16 14:05:27;;;;;;;9.60;4.70;;;;;;;;;;5042563;28;21020;-83
2021/07/16 14:07:53;;;;;;;6.43;3.90;;;;;;;;;;5020805;28;20407;-82
2021/07/16 14:10:20;;;;;;;7.07;4.30;;;;;;;;;;5025487;28;20415;-82
2021/07/16 14:12:46;;;;;;;6.60;3.80;;;;;;;;;;5043148;28;20790;-82
2021/07/16 14:15:13;;;;;;;7.67;5.00;;;;;;;;;;5044054;28;20420;-81
2021/07/16 14:17:39;;;;;;;8.67;4.93;;;;;;;;;;5058519;28;20535;-84
2021/07/16 14:20:06;;;;;;;7.10;5.43;;;;;;;;;;5020069;28;20835;-83
2021/07/16 14:22:36;;;;;;;10.90;4.80;;;;;;;;;;5009448;28;20502;-84
2021/07/16 14:25:03;;;;;;;6.10;4.40;;;;;;;;;;5057728;28;20440;-82
2021/07/16 14:27:30;;;;;;;7.10;4.93;;;;;;;;;;5058253;28;20416;-83
2021/07/16 14:29:56;;;;;;;6.40;5.10;;;;;;;;;;5043921;28;20409;-82
2021/07/16 14:32:22;;;;;;;9.53;4.90;;;;;;;;;;5017708;28;20450;-83
2021/07/16 14:34:48;;;;;;;8.53;5.03;;;;;;;;;;5016354;28;20888;-83
2021/07/16 14:37:19;;;;;;;6.13;4.30;;;;;;;;;;5039563;28;20500;-81
2021/07/16 14:39:45;;;;;;;12.23;4.30;;;;;;;;;;5058244;28;20433;-83
2021/07/16 14:42:11;;;;;;;7.07;4.03;;;;;;;;;;5044020;28;20860;-81
2021/07/16 14:44:37;;;;;;;4.87;3.70;;;;;;;;;;5020544;28;20429;-83